sensor_id;sensor_type;location;lat;lon;timestamp;P1;durP1;ratioP1;P2;durP2;ratioP2
16878;SDS011;8556;52.218;9.884;2022-08-19T00:01:24;11.85;;;9.77;;
16878;SDS011;8556;52.218;9.884;2022-08-19T00:03:52;14.38;;;10.38;;
16878;SDS011;8556;52.218;9.884;2022-08-19T00:06:19;13.48;;;10.02;;
16878;SDS011;8556;52.218;9.884;2022-08-19T00:08:45;14.95;;;10.05;;
16878;SDS011;8556;52.218;9.884;2022-08-19T00:11:12;14.70;;;10.05;;
16878;SDS011;8556;52.218;9.884;2022-08-19T00:13:40;14.02;;;9.65;;
16878;SDS011;8556;52.218;9.884;2022-08-19T00:16:07;15.55;;;10.30;;
16878;SDS011;8556;52.218;9.884;2022-08-19T00:18:34;13.80;;;10.57;;
16878;SDS011;8556;52.218;9.884;2022-08-19T00:21:01;13.55;;;10.45;;
16878;SDS011;8556;52.218;9.884;2022-08-19T00:23:33;15.40;;;10.52;;
16878;SDS011;8556;52.218;9.884;2022-08-19T00:26:01;14.43;;;10.63;;
16878;SDS011;8556;52.218;9.884;2022-08-19T00:28:28;12.77;;;9.65;;
16878;SDS011;8556;52.218;9.884;2022-08-19T00:30:57;17.48;;;10.65;;
16878;SDS011;8556;52.218;9.884;2022-08-19T00:33:24;14.38;;;10.13;;
16878;SDS011;8556;52.218;9.884;2022-08-19T00:35:51;14.45;;;10.90;;
16878;SDS011;8556;52.218;9.884;2022-08-19T00:38:18;11.95;;;9.45;;
16878;SDS011;8556;52.218;9.884;2022-08-19T00:40:47;14.80;;;10.15;;
16878;SDS011;8556;52.218;9.884;2022-08-19T00:43:17;14.98;;;9.88;;
16878;SDS011;8556;52.218;9.884;2022-08-19T00:45:45;13.63;;;10.30;;
16878;SDS011;8556;52.218;9.884;2022-08-19T00:48:14;16.02;;;10.82;;
16878;SDS011;8556;52.218;9.884;2022-08-19T00:50:42;15.02;;;9.95;;
16878;SDS011;8556;52.218;9.884;2022-08-19T00:53:10;14.13;;;10.07;;
16878;SDS011;8556;52.218;9.884;2022-08-19T00:55:40;15.23;;;10.02;;
16878;SDS011;8556;52.218;9.884;2022-08-19T00:58:10;12.80;;;9.32;;
16878;SDS011;8556;52.218;9.884;2022-08-19T01:00:41;13.45;;;10.27;;
16878;SDS011;8556;52.218;9.884;2022-08-19T01:03:09;17.08;;;10.55;;
16878;SDS011;8556;52.218;9.884;2022-08-19T01:05:39;13.57;;;9.40;;
16878;SDS011;8556;52.218;9.884;2022-08-19T01:08:09;15.80;;;10.57;;
16878;SDS011;8556;52.218;9.884;2022-08-19T01:10:37;13.10;;;10.02;;
16878;SDS011;8556;52.218;9.884;2022-08-19T01:13:07;17.98;;;11.02;;
16878;SDS011;8556;52.218;9.884;2022-08-19T01:15:35;14.93;;;10.32;;
16878;SDS011;8556;52.218;9.884;2022-08-19T01:18:08;13.85;;;9.65;;
16878;SDS011;8556;52.218;9.884;2022-08-19T01:20:38;12.90;;;9.75;;
16878;SDS011;8556;52.218;9.884;2022-08-19T01:23:08;13.73;;;9.75;;
16878;SDS011;8556;52.218;9.884;2022-08-19T01:25:38;12.27;;;9.32;;
16878;SDS011;8556;52.218;9.884;2022-08-19T01:28:07;16.73;;;10.95;;
16878;SDS011;8556;52.218;9.884;2022-08-19T01:30:34;13.85;;;9.90;;
16878;SDS011;8556;52.218;9.884;2022-08-19T01:33:02;13.52;;;9.73;;
16878;SDS011;8556;52.218;9.884;2022-08-19T01:35:30;13.43;;;9.32;;
16878;SDS011;8556;52.218;9.884;2022-08-19T01:37:59;15.48;;;10.40;;
16878;SDS011;8556;52.218;9.884;2022-08-19T01:40:31;15.15;;;10.77;;
16878;SDS011;8556;52.218;9.884;2022-08-19T01:43:00;14.57;;;10.25;;
16878;SDS011;8556;52.218;9.884;2022-08-19T01:45:28;13.52;;;9.13;;
16878;SDS011;8556;52.218;9.884;2022-08-19T01:47:57;15.50;;;10.20;;
16878;SDS011;8556;52.218;9.884;2022-08-19T01:50:25;14.20;;;9.95;;
16878;SDS011;8556;52.218;9.884;2022-08-19T01:52:52;15.57;;;9.85;;
16878;SDS011;8556;52.218;9.884;2022-08-19T01:55:20;12.55;;;9.43;;
16878;SDS011;8556;52.218;9.884;2022-08-19T01:57:58;16.20;;;10.80;;
16878;SDS011;8556;52.218;9.884;2022-08-19T02:00:29;14.90;;;10.20;;
16878;SDS011;8556;52.218;9.884;2022-08-19T02:02:57;14.25;;;10.57;;
16878;SDS011;8556;52.218;9.884;2022-08-19T02:05:26;14.80;;;10.73;;
16878;SDS011;8556;52.218;9.884;2022-08-19T02:07:54;15.70;;;10.95;;
16878;SDS011;8556;52.218;9.884;2022-08-19T02:10:21;14.45;;;10.38;;
16878;SDS011;8556;52.218;9.884;2022-08-19T02:12:52;14.38;;;10.32;;
16878;SDS011;8556;52.218;9.884;2022-08-19T02:15:20;13.43;;;10.02;;
16878;SDS011;8556;52.218;9.884;2022-08-19T02:17:51;15.15;;;10.88;;
16878;SDS011;8556;52.218;9.884;2022-08-19T02:20:18;16.08;;;10.23;;
16878;SDS011;8556;52.218;9.884;2022-08-19T02:22:45;13.07;;;10.00;;
16878;SDS011;8556;52.218;9.884;2022-08-19T02:25:13;18.13;;;10.32;;
16878;SDS011;8556;52.218;9.884;2022-08-19T02:27:40;14.05;;;9.60;;
16878;SDS011;8556;52.218;9.884;2022-08-19T02:30:14;17.98;;;11.05;;
16878;SDS011;8556;52.218;9.884;2022-08-19T02:32:42;14.95;;;10.80;;
16878;SDS011;8556;52.218;9.884;2022-08-19T02:35:09;15.65;;;10.88;;
16878;SDS011;8556;52.218;9.884;2022-08-19T02:37:36;18.25;;;10.88;;
16878;SDS011;8556;52.218;9.884;2022-08-19T02:40:20;15.80;;;10.65;;
16878;SDS011;8556;52.218;9.884;2022-08-19T02:42:47;16.20;;;11.13;;
16878;SDS011;8556;52.218;9.884;2022-08-19T02:45:15;16.00;;;10.07;;
16878;SDS011;8556;52.218;9.884;2022-08-19T02:47:42;16.38;;;10.75;;
16878;SDS011;8556;52.218;9.884;2022-08-19T02:50:09;15.88;;;10.27;;
16878;SDS011;8556;52.218;9.884;2022-08-19T02:52:36;16.85;;;10.93;;
16878;SDS011;8556;52.218;9.884;2022-08-19T02:55:03;15.75;;;10.93;;
16878;SDS011;8556;52.218;9.884;2022-08-19T02:57:31;14.18;;;10.88;;
16878;SDS011;8556;52.218;9.884;2022-08-19T02:59:59;15.20;;;10.15;;
16878;SDS011;8556;52.218;9.884;2022-08-19T03:02:27;14.73;;;10.57;;
16878;SDS011;8556;52.218;9.884;2022-08-19T03:04:55;15.10;;;9.98;;
16878;SDS011;8556;52.218;9.884;2022-08-19T03:07:22;15.88;;;10.90;;
16878;SDS011;8556;52.218;9.884;2022-08-19T03:09:49;17.08;;;10.88;;
16878;SDS011;8556;52.218;9.884;2022-08-19T03:12:16;17.08;;;11.10;;
16878;SDS011;8556;52.218;9.884;2022-08-19T03:14:43;15.30;;;10.65;;
16878;SDS011;8556;52.218;9.884;2022-08-19T03:17:11;15.30;;;10.02;;
16878;SDS011;8556;52.218;9.884;2022-08-19T03:19:39;14.93;;;10.40;;
16878;SDS011;8556;52.218;9.884;2022-08-19T03:22:08;19.63;;;11.55;;
16878;SDS011;8556;52.218;9.884;2022-08-19T03:24:35;17.25;;;10.90;;
16878;SDS011;8556;52.218;9.884;2022-08-19T03:27:02;14.95;;;10.68;;
16878;SDS011;8556;52.218;9.884;2022-08-19T03:29:30;14.40;;;10.73;;
16878;SDS011;8556;52.218;9.884;2022-08-19T03:31:57;15.75;;;10.70;;
16878;SDS011;8556;52.218;9.884;2022-08-19T03:34:29;16.35;;;10.82;;
16878;SDS011;8556;52.218;9.884;2022-08-19T03:36:59;17.42;;;11.60;;
16878;SDS011;8556;52.218;9.884;2022-08-19T03:39:29;17.48;;;10.68;;
16878;SDS011;8556;52.218;9.884;2022-08-19T03:41:56;16.52;;;12.02;;
16878;SDS011;8556;52.218;9.884;2022-08-19T03:44:25;20.38;;;11.05;;
16878;SDS011;8556;52.218;9.884;2022-08-19T03:46:52;14.27;;;10.93;;
16878;SDS011;8556;52.218;9.884;2022-08-19T03:49:21;14.70;;;10.95;;
16878;SDS011;8556;52.218;9.884;2022-08-19T03:51:49;14.48;;;10.68;;
16878;SDS011;8556;52.218;9.884;2022-08-19T03:54:20;17.05;;;11.20;;
16878;SDS011;8556;52.218;9.884;2022-08-19T03:56:49;16.80;;;11.23;;
16878;SDS011;8556;52.218;9.884;2022-08-19T03:59:18;17.88;;;11.52;;
16878;SDS011;8556;52.218;9.884;2022-08-19T04:01:51;14.93;;;10.35;;
16878;SDS011;8556;52.218;9.884;2022-08-19T04:04:18;16.73;;;11.00;;
16878;SDS011;8556;52.218;9.884;2022-08-19T04:06:46;16.95;;;10.95;;
16878;SDS011;8556;52.218;9.884;2022-08-19T04:09:13;15.65;;;11.45;;
16878;SDS011;8556;52.218;9.884;2022-08-19T04:11:43;16.92;;;12.10;;
16878;SDS011;8556;52.218;9.884;2022-08-19T04:14:12;19.20;;;12.48;;
16878;SDS011;8556;52.218;9.884;2022-08-19T04:16:41;17.25;;;11.57;;
16878;SDS011;8556;52.218;9.884;2022-08-19T04:19:09;19.27;;;12.57;;
16878;SDS011;8556;52.218;9.884;2022-08-19T04:21:36;17.55;;;12.65;;
16878;SDS011;8556;52.218;9.884;2022-08-19T04:24:04;19.38;;;11.98;;
16878;SDS011;8556;52.218;9.884;2022-08-19T04:26:32;18.77;;;12.75;;
16878;SDS011;8556;52.218;9.884;2022-08-19T04:29:04;17.02;;;11.68;;
16878;SDS011;8556;52.218;9.884;2022-08-19T04:31:32;17.63;;;12.02;;
16878;SDS011;8556;52.218;9.884;2022-08-19T04:34:00;18.33;;;12.68;;
16878;SDS011;8556;52.218;9.884;2022-08-19T04:36:30;16.42;;;11.93;;
16878;SDS011;8556;52.218;9.884;2022-08-19T04:38:59;15.32;;;11.35;;
16878;SDS011;8556;52.218;9.884;2022-08-19T04:41:27;17.50;;;11.65;;
16878;SDS011;8556;52.218;9.884;2022-08-19T04:44:13;16.90;;;11.65;;
16878;SDS011;8556;52.218;9.884;2022-08-19T04:46:43;18.35;;;11.88;;
16878;SDS011;8556;52.218;9.884;2022-08-19T04:49:10;17.55;;;11.02;;
16878;SDS011;8556;52.218;9.884;2022-08-19T04:51:39;15.25;;;11.10;;
16878;SDS011;8556;52.218;9.884;2022-08-19T04:54:07;15.93;;;10.75;;
16878;SDS011;8556;52.218;9.884;2022-08-19T04:56:35;17.08;;;10.35;;
16878;SDS011;8556;52.218;9.884;2022-08-19T04:59:02;16.40;;;10.77;;
16878;SDS011;8556;52.218;9.884;2022-08-19T05:01:31;15.68;;;9.88;;
16878;SDS011;8556;52.218;9.884;2022-08-19T05:03:59;15.13;;;10.05;;
16878;SDS011;8556;52.218;9.884;2022-08-19T05:06:30;15.50;;;9.85;;
16878;SDS011;8556;52.218;9.884;2022-08-19T05:08:59;15.13;;;9.73;;
16878;SDS011;8556;52.218;9.884;2022-08-19T05:11:27;15.30;;;9.90;;
16878;SDS011;8556;52.218;9.884;2022-08-19T05:13:56;19.23;;;11.15;;
16878;SDS011;8556;52.218;9.884;2022-08-19T05:16:24;12.60;;;9.18;;
16878;SDS011;8556;52.218;9.884;2022-08-19T05:18:53;13.38;;;9.30;;
16878;SDS011;8556;52.218;9.884;2022-08-19T05:21:39;13.70;;;9.10;;
16878;SDS011;8556;52.218;9.884;2022-08-19T05:24:24;17.60;;;9.48;;
16878;SDS011;8556;52.218;9.884;2022-08-19T05:26:52;15.10;;;9.32;;
16878;SDS011;8556;52.218;9.884;2022-08-19T05:29:22;12.63;;;9.05;;
16878;SDS011;8556;52.218;9.884;2022-08-19T05:31:50;13.48;;;9.50;;
16878;SDS011;8556;52.218;9.884;2022-08-19T05:34:20;15.15;;;9.80;;
16878;SDS011;8556;52.218;9.884;2022-08-19T05:36:50;17.58;;;10.10;;
16878;SDS011;8556;52.218;9.884;2022-08-19T05:39:22;14.20;;;9.80;;
16878;SDS011;8556;52.218;9.884;2022-08-19T05:41:51;15.70;;;10.32;;
16878;SDS011;8556;52.218;9.884;2022-08-19T05:44:19;15.35;;;9.88;;
16878;SDS011;8556;52.218;9.884;2022-08-19T05:46:47;13.75;;;9.80;;
16878;SDS011;8556;52.218;9.884;2022-08-19T05:49:14;14.93;;;9.82;;
16878;SDS011;8556;52.218;9.884;2022-08-19T05:51:43;13.73;;;8.90;;
16878;SDS011;8556;52.218;9.884;2022-08-19T05:54:10;16.08;;;9.90;;
16878;SDS011;8556;52.218;9.884;2022-08-19T05:56:38;16.83;;;10.02;;
16878;SDS011;8556;52.218;9.884;2022-08-19T05:59:06;14.55;;;9.15;;
16878;SDS011;8556;52.218;9.884;2022-08-19T06:01:34;12.02;;;9.48;;
16878;SDS011;8556;52.218;9.884;2022-08-19T06:04:02;14.13;;;9.77;;
16878;SDS011;8556;52.218;9.884;2022-08-19T06:06:30;16.80;;;10.43;;
16878;SDS011;8556;52.218;9.884;2022-08-19T06:09:00;17.40;;;10.85;;
16878;SDS011;8556;52.218;9.884;2022-08-19T06:11:32;16.52;;;10.75;;
16878;SDS011;8556;52.218;9.884;2022-08-19T06:14:01;18.58;;;12.02;;
16878;SDS011;8556;52.218;9.884;2022-08-19T06:16:30;18.52;;;11.52;;
16878;SDS011;8556;52.218;9.884;2022-08-19T06:19:00;16.25;;;11.05;;
16878;SDS011;8556;52.218;9.884;2022-08-19T06:21:29;17.58;;;11.75;;
16878;SDS011;8556;52.218;9.884;2022-08-19T06:23:56;17.88;;;12.27;;
16878;SDS011;8556;52.218;9.884;2022-08-19T06:26:25;18.83;;;11.50;;
16878;SDS011;8556;52.218;9.884;2022-08-19T06:28:52;18.55;;;12.23;;
16878;SDS011;8556;52.218;9.884;2022-08-19T06:31:20;16.83;;;11.90;;
16878;SDS011;8556;52.218;9.884;2022-08-19T06:33:48;20.13;;;12.48;;
16878;SDS011;8556;52.218;9.884;2022-08-19T06:36:17;17.20;;;11.30;;
16878;SDS011;8556;52.218;9.884;2022-08-19T06:38:45;19.10;;;11.93;;
16878;SDS011;8556;52.218;9.884;2022-08-19T06:41:12;19.75;;;12.32;;
16878;SDS011;8556;52.218;9.884;2022-08-19T06:43:40;17.95;;;12.05;;
16878;SDS011;8556;52.218;9.884;2022-08-19T06:46:11;19.52;;;12.45;;
16878;SDS011;8556;52.218;9.884;2022-08-19T06:48:39;20.30;;;12.45;;
16878;SDS011;8556;52.218;9.884;2022-08-19T06:51:06;19.42;;;12.95;;
16878;SDS011;8556;52.218;9.884;2022-08-19T06:53:33;22.77;;;14.80;;
16878;SDS011;8556;52.218;9.884;2022-08-19T06:56:00;24.02;;;15.43;;
16878;SDS011;8556;52.218;9.884;2022-08-19T06:58:27;21.42;;;14.30;;
16878;SDS011;8556;52.218;9.884;2022-08-19T07:00:59;23.67;;;14.77;;
16878;SDS011;8556;52.218;9.884;2022-08-19T07:03:28;23.90;;;14.38;;
16878;SDS011;8556;52.218;9.884;2022-08-19T07:05:57;22.75;;;14.93;;
16878;SDS011;8556;52.218;9.884;2022-08-19T07:08:28;22.77;;;14.35;;
16878;SDS011;8556;52.218;9.884;2022-08-19T07:10:55;23.60;;;15.65;;
16878;SDS011;8556;52.218;9.884;2022-08-19T07:13:21;23.65;;;15.40;;
16878;SDS011;8556;52.218;9.884;2022-08-19T07:15:48;22.50;;;14.63;;
16878;SDS011;8556;52.218;9.884;2022-08-19T07:18:17;23.23;;;15.38;;
16878;SDS011;8556;52.218;9.884;2022-08-19T07:20:45;24.35;;;14.95;;
16878;SDS011;8556;52.218;9.884;2022-08-19T07:23:13;23.50;;;14.63;;
16878;SDS011;8556;52.218;9.884;2022-08-19T07:25:40;22.65;;;14.43;;
16878;SDS011;8556;52.218;9.884;2022-08-19T07:28:08;21.40;;;14.43;;
16878;SDS011;8556;52.218;9.884;2022-08-19T07:30:38;22.00;;;14.50;;
16878;SDS011;8556;52.218;9.884;2022-08-19T07:33:05;21.58;;;13.68;;
16878;SDS011;8556;52.218;9.884;2022-08-19T07:35:34;20.48;;;12.82;;
16878;SDS011;8556;52.218;9.884;2022-08-19T07:38:01;20.35;;;13.80;;
16878;SDS011;8556;52.218;9.884;2022-08-19T07:40:28;19.95;;;13.73;;
16878;SDS011;8556;52.218;9.884;2022-08-19T07:42:56;24.33;;;14.20;;
16878;SDS011;8556;52.218;9.884;2022-08-19T07:45:23;20.55;;;13.63;;
16878;SDS011;8556;52.218;9.884;2022-08-19T07:47:50;22.40;;;13.82;;
16878;SDS011;8556;52.218;9.884;2022-08-19T07:50:18;17.50;;;12.32;;
16878;SDS011;8556;52.218;9.884;2022-08-19T07:52:48;17.98;;;11.65;;
16878;SDS011;8556;52.218;9.884;2022-08-19T07:55:17;17.73;;;11.90;;
16878;SDS011;8556;52.218;9.884;2022-08-19T07:57:45;16.55;;;11.98;;
16878;SDS011;8556;52.218;9.884;2022-08-19T08:00:12;18.60;;;12.55;;
16878;SDS011;8556;52.218;9.884;2022-08-19T08:02:40;17.48;;;12.45;;
16878;SDS011;8556;52.218;9.884;2022-08-19T08:05:08;19.77;;;14.35;;
16878;SDS011;8556;52.218;9.884;2022-08-19T08:07:54;16.63;;;11.82;;
16878;SDS011;8556;52.218;9.884;2022-08-19T08:10:38;16.10;;;11.70;;
16878;SDS011;8556;52.218;9.884;2022-08-19T08:13:05;19.42;;;11.20;;
16878;SDS011;8556;52.218;9.884;2022-08-19T08:15:33;17.02;;;12.52;;
16878;SDS011;8556;52.218;9.884;2022-08-19T08:17:59;17.52;;;11.90;;
16878;SDS011;8556;52.218;9.884;2022-08-19T08:20:27;15.68;;;11.35;;
16878;SDS011;8556;52.218;9.884;2022-08-19T08:22:55;14.20;;;11.05;;
16878;SDS011;8556;52.218;9.884;2022-08-19T08:25:40;13.40;;;9.98;;
16878;SDS011;8556;52.218;9.884;2022-08-19T08:28:06;14.23;;;10.38;;
16878;SDS011;8556;52.218;9.884;2022-08-19T08:30:34;14.13;;;10.80;;
16878;SDS011;8556;52.218;9.884;2022-08-19T08:33:04;16.40;;;11.02;;
16878;SDS011;8556;52.218;9.884;2022-08-19T08:35:31;14.70;;;11.18;;
16878;SDS011;8556;52.218;9.884;2022-08-19T08:38:00;14.05;;;11.40;;
16878;SDS011;8556;52.218;9.884;2022-08-19T08:40:29;15.10;;;11.30;;
16878;SDS011;8556;52.218;9.884;2022-08-19T08:43:06;15.43;;;11.70;;
16878;SDS011;8556;52.218;9.884;2022-08-19T08:45:36;18.70;;;12.57;;
16878;SDS011;8556;52.218;9.884;2022-08-19T08:48:12;15.80;;;10.85;;
16878;SDS011;8556;52.218;9.884;2022-08-19T08:50:46;15.32;;;10.63;;
16878;SDS011;8556;52.218;9.884;2022-08-19T08:53:19;14.57;;;10.60;;
16878;SDS011;8556;52.218;9.884;2022-08-19T08:55:47;16.65;;;11.00;;
16878;SDS011;8556;52.218;9.884;2022-08-19T08:58:14;17.20;;;11.55;;
16878;SDS011;8556;52.218;9.884;2022-08-19T09:00:48;15.32;;;10.15;;
16878;SDS011;8556;52.218;9.884;2022-08-19T09:03:17;11.68;;;8.45;;
16878;SDS011;8556;52.218;9.884;2022-08-19T09:05:49;11.52;;;8.60;;
16878;SDS011;8556;52.218;9.884;2022-08-19T09:08:28;12.50;;;8.90;;
16878;SDS011;8556;52.218;9.884;2022-08-19T09:11:06;9.73;;;7.82;;
16878;SDS011;8556;52.218;9.884;2022-08-19T09:13:37;13.10;;;8.57;;
16878;SDS011;8556;52.218;9.884;2022-08-19T09:16:16;11.10;;;8.82;;
16878;SDS011;8556;52.218;9.884;2022-08-19T09:18:49;10.93;;;8.32;;
16878;SDS011;8556;52.218;9.884;2022-08-19T09:21:18;13.80;;;9.15;;
16878;SDS011;8556;52.218;9.884;2022-08-19T09:23:49;10.02;;;7.30;;
16878;SDS011;8556;52.218;9.884;2022-08-19T09:26:17;11.40;;;8.25;;
16878;SDS011;8556;52.218;9.884;2022-08-19T09:28:46;9.48;;;7.78;;
16878;SDS011;8556;52.218;9.884;2022-08-19T09:31:15;10.95;;;7.95;;
16878;SDS011;8556;52.218;9.884;2022-08-19T09:33:43;11.40;;;8.40;;
16878;SDS011;8556;52.218;9.884;2022-08-19T09:36:11;10.50;;;7.63;;
16878;SDS011;8556;52.218;9.884;2022-08-19T09:38:39;10.18;;;7.88;;
16878;SDS011;8556;52.218;9.884;2022-08-19T09:41:09;10.13;;;7.20;;
16878;SDS011;8556;52.218;9.884;2022-08-19T09:43:38;7.60;;;5.97;;
16878;SDS011;8556;52.218;9.884;2022-08-19T09:46:06;8.02;;;6.40;;
16878;SDS011;8556;52.218;9.884;2022-08-19T09:48:35;9.07;;;6.35;;
16878;SDS011;8556;52.218;9.884;2022-08-19T09:51:03;9.27;;;6.65;;
16878;SDS011;8556;52.218;9.884;2022-08-19T09:53:31;9.48;;;7.03;;
16878;SDS011;8556;52.218;9.884;2022-08-19T09:55:58;8.57;;;6.45;;
16878;SDS011;8556;52.218;9.884;2022-08-19T09:58:26;6.60;;;6.00;;
16878;SDS011;8556;52.218;9.884;2022-08-19T10:00:55;7.65;;;5.85;;
16878;SDS011;8556;52.218;9.884;2022-08-19T10:03:22;7.45;;;6.50;;
16878;SDS011;8556;52.218;9.884;2022-08-19T10:05:49;8.32;;;5.97;;
16878;SDS011;8556;52.218;9.884;2022-08-19T10:08:17;8.90;;;5.53;;
16878;SDS011;8556;52.218;9.884;2022-08-19T10:10:46;6.30;;;4.72;;
16878;SDS011;8556;52.218;9.884;2022-08-19T10:13:14;6.88;;;5.68;;
16878;SDS011;8556;52.218;9.884;2022-08-19T10:15:46;5.38;;;3.83;;
16878;SDS011;8556;52.218;9.884;2022-08-19T10:18:16;5.35;;;4.57;;
16878;SDS011;8556;52.218;9.884;2022-08-19T10:20:43;7.13;;;4.93;;
16878;SDS011;8556;52.218;9.884;2022-08-19T10:23:11;8.07;;;5.00;;
16878;SDS011;8556;52.218;9.884;2022-08-19T10:25:40;6.25;;;4.30;;
16878;SDS011;8556;52.218;9.884;2022-08-19T10:28:07;4.90;;;3.63;;
16878;SDS011;8556;52.218;9.884;2022-08-19T10:30:37;5.13;;;4.50;;
16878;SDS011;8556;52.218;9.884;2022-08-19T10:33:06;4.18;;;3.78;;
16878;SDS011;8556;52.218;9.884;2022-08-19T10:35:32;5.25;;;4.38;;
16878;SDS011;8556;52.218;9.884;2022-08-19T10:38:00;4.53;;;4.10;;
16878;SDS011;8556;52.218;9.884;2022-08-19T10:40:28;5.90;;;4.18;;
16878;SDS011;8556;52.218;9.884;2022-08-19T10:42:55;7.05;;;4.32;;
16878;SDS011;8556;52.218;9.884;2022-08-19T10:45:22;5.22;;;4.20;;
16878;SDS011;8556;52.218;9.884;2022-08-19T10:47:50;4.35;;;3.95;;
16878;SDS011;8556;52.218;9.884;2022-08-19T10:50:19;5.20;;;3.40;;
16878;SDS011;8556;52.218;9.884;2022-08-19T10:53:05;2.95;;;2.67;;
16878;SDS011;8556;52.218;9.884;2022-08-19T10:55:33;3.22;;;2.10;;
16878;SDS011;8556;52.218;9.884;2022-08-19T10:58:18;3.13;;;2.38;;
16878;SDS011;8556;52.218;9.884;2022-08-19T11:00:50;2.65;;;2.45;;
16878;SDS011;8556;52.218;9.884;2022-08-19T11:03:18;3.88;;;2.20;;
16878;SDS011;8556;52.218;9.884;2022-08-19T11:05:51;3.72;;;2.30;;
16878;SDS011;8556;52.218;9.884;2022-08-19T11:08:23;3.40;;;2.20;;
16878;SDS011;8556;52.218;9.884;2022-08-19T11:10:52;2.95;;;2.28;;
16878;SDS011;8556;52.218;9.884;2022-08-19T11:13:21;2.10;;;2.00;;
16878;SDS011;8556;52.218;9.884;2022-08-19T11:15:55;2.53;;;2.33;;
16878;SDS011;8556;52.218;9.884;2022-08-19T11:18:23;3.15;;;2.25;;
16878;SDS011;8556;52.218;9.884;2022-08-19T11:20:52;2.85;;;1.90;;
16878;SDS011;8556;52.218;9.884;2022-08-19T11:23:19;2.40;;;2.20;;
16878;SDS011;8556;52.218;9.884;2022-08-19T11:25:46;2.83;;;2.00;;
16878;SDS011;8556;52.218;9.884;2022-08-19T11:28:13;2.58;;;2.38;;
16878;SDS011;8556;52.218;9.884;2022-08-19T11:30:40;2.50;;;2.30;;
16878;SDS011;8556;52.218;9.884;2022-08-19T11:33:06;2.40;;;2.20;;
16878;SDS011;8556;52.218;9.884;2022-08-19T11:35:38;3.22;;;2.20;;
16878;SDS011;8556;52.218;9.884;2022-08-19T11:38:07;3.58;;;2.05;;
16878;SDS011;8556;52.218;9.884;2022-08-19T11:40:34;2.75;;;2.10;;
16878;SDS011;8556;52.218;9.884;2022-08-19T11:43:01;2.72;;;2.53;;
16878;SDS011;8556;52.218;9.884;2022-08-19T11:45:28;2.70;;;2.40;;
16878;SDS011;8556;52.218;9.884;2022-08-19T11:47:56;2.35;;;2.15;;
16878;SDS011;8556;52.218;9.884;2022-08-19T11:50:23;2.28;;;2.10;;
16878;SDS011;8556;52.218;9.884;2022-08-19T11:52:51;2.80;;;2.13;;
16878;SDS011;8556;52.218;9.884;2022-08-19T11:55:21;3.05;;;2.10;;
16878;SDS011;8556;52.218;9.884;2022-08-19T11:57:49;2.72;;;2.53;;
16878;SDS011;8556;52.218;9.884;2022-08-19T12:00:16;2.42;;;2.20;;
16878;SDS011;8556;52.218;9.884;2022-08-19T12:02:43;2.25;;;2.10;;
16878;SDS011;8556;52.218;9.884;2022-08-19T12:05:10;2.75;;;2.55;;
16878;SDS011;8556;52.218;9.884;2022-08-19T12:07:36;2.65;;;2.30;;
16878;SDS011;8556;52.218;9.884;2022-08-19T12:10:03;5.65;;;2.40;;
16878;SDS011;8556;52.218;9.884;2022-08-19T12:12:32;3.17;;;2.33;;
16878;SDS011;8556;52.218;9.884;2022-08-19T12:14:59;2.85;;;2.60;;
16878;SDS011;8556;52.218;9.884;2022-08-19T12:17:26;2.88;;;2.45;;
16878;SDS011;8556;52.218;9.884;2022-08-19T12:19:53;2.72;;;2.53;;
16878;SDS011;8556;52.218;9.884;2022-08-19T12:22:20;3.03;;;2.78;;
16878;SDS011;8556;52.218;9.884;2022-08-19T12:24:47;3.95;;;2.83;;
16878;SDS011;8556;52.218;9.884;2022-08-19T12:27:17;4.55;;;2.50;;
16878;SDS011;8556;52.218;9.884;2022-08-19T12:29:45;2.85;;;2.65;;
16878;SDS011;8556;52.218;9.884;2022-08-19T12:32:12;3.78;;;2.80;;
16878;SDS011;8556;52.218;9.884;2022-08-19T12:34:39;2.10;;;2.00;;
16878;SDS011;8556;52.218;9.884;2022-08-19T12:37:07;2.28;;;1.90;;
16878;SDS011;8556;52.218;9.884;2022-08-19T12:39:36;1.90;;;1.80;;
16878;SDS011;8556;52.218;9.884;2022-08-19T12:42:05;2.70;;;2.20;;
16878;SDS011;8556;52.218;9.884;2022-08-19T12:44:34;3.38;;;2.30;;
16878;SDS011;8556;52.218;9.884;2022-08-19T12:47:03;2.67;;;1.90;;
16878;SDS011;8556;52.218;9.884;2022-08-19T12:49:31;2.90;;;2.60;;
16878;SDS011;8556;52.218;9.884;2022-08-19T12:51:59;2.53;;;2.00;;
16878;SDS011;8556;52.218;9.884;2022-08-19T12:54:26;2.40;;;2.30;;
16878;SDS011;8556;52.218;9.884;2022-08-19T12:56:53;2.55;;;2.35;;
16878;SDS011;8556;52.218;9.884;2022-08-19T12:59:21;2.25;;;2.05;;
16878;SDS011;8556;52.218;9.884;2022-08-19T13:01:47;4.20;;;2.10;;
16878;SDS011;8556;52.218;9.884;2022-08-19T13:04:16;2.30;;;2.10;;
16878;SDS011;8556;52.218;9.884;2022-08-19T13:06:43;5.57;;;2.70;;
16878;SDS011;8556;52.218;9.884;2022-08-19T13:09:10;3.30;;;2.20;;
16878;SDS011;8556;52.218;9.884;2022-08-19T13:11:37;2.10;;;2.00;;
16878;SDS011;8556;52.218;9.884;2022-08-19T13:14:04;2.33;;;2.13;;
16878;SDS011;8556;52.218;9.884;2022-08-19T13:16:31;3.00;;;2.05;;
16878;SDS011;8556;52.218;9.884;2022-08-19T13:18:58;2.33;;;2.05;;
16878;SDS011;8556;52.218;9.884;2022-08-19T13:21:29;4.82;;;1.95;;
16878;SDS011;8556;52.218;9.884;2022-08-19T13:23:56;2.25;;;2.15;;
16878;SDS011;8556;52.218;9.884;2022-08-19T13:26:23;2.60;;;2.40;;
16878;SDS011;8556;52.218;9.884;2022-08-19T13:28:50;2.40;;;2.20;;
16878;SDS011;8556;52.218;9.884;2022-08-19T13:31:35;1.90;;;1.80;;
16878;SDS011;8556;52.218;9.884;2022-08-19T13:34:25;3.17;;;2.72;;
16878;SDS011;8556;52.218;9.884;2022-08-19T13:36:56;5.72;;;2.55;;
16878;SDS011;8556;52.218;9.884;2022-08-19T13:39:23;4.13;;;2.40;;
16878;SDS011;8556;52.218;9.884;2022-08-19T13:41:50;2.20;;;1.98;;
16878;SDS011;8556;52.218;9.884;2022-08-19T13:44:18;2.20;;;2.00;;
16878;SDS011;8556;52.218;9.884;2022-08-19T13:46:45;3.45;;;2.28;;
16878;SDS011;8556;52.218;9.884;2022-08-19T13:49:13;1.90;;;1.80;;
16878;SDS011;8556;52.218;9.884;2022-08-19T13:51:41;2.78;;;1.90;;
16878;SDS011;8556;52.218;9.884;2022-08-19T13:54:09;3.55;;;2.08;;
16878;SDS011;8556;52.218;9.884;2022-08-19T13:56:39;3.20;;;2.10;;
16878;SDS011;8556;52.218;9.884;2022-08-19T13:59:07;1.92;;;1.80;;
16878;SDS011;8556;52.218;9.884;2022-08-19T14:01:34;2.30;;;2.10;;
16878;SDS011;8556;52.218;9.884;2022-08-19T14:04:01;2.20;;;2.00;;
16878;SDS011;8556;52.218;9.884;2022-08-19T14:06:28;2.13;;;1.92;;
16878;SDS011;8556;52.218;9.884;2022-08-19T14:08:55;3.17;;;2.08;;
16878;SDS011;8556;52.218;9.884;2022-08-19T14:11:23;2.22;;;2.00;;
16878;SDS011;8556;52.218;9.884;2022-08-19T14:13:51;2.30;;;2.10;;
16878;SDS011;8556;52.218;9.884;2022-08-19T14:16:18;2.08;;;1.83;;
16878;SDS011;8556;52.218;9.884;2022-08-19T14:18:46;2.25;;;2.05;;
16878;SDS011;8556;52.218;9.884;2022-08-19T14:21:17;3.28;;;1.85;;
16878;SDS011;8556;52.218;9.884;2022-08-19T14:23:46;2.03;;;1.90;;
16878;SDS011;8556;52.218;9.884;2022-08-19T14:26:14;3.35;;;2.25;;
16878;SDS011;8556;52.218;9.884;2022-08-19T14:28:44;2.22;;;2.00;;
16878;SDS011;8556;52.218;9.884;2022-08-19T14:31:12;2.22;;;1.77;;
16878;SDS011;8556;52.218;9.884;2022-08-19T14:33:43;2.00;;;1.90;;
16878;SDS011;8556;52.218;9.884;2022-08-19T14:36:10;2.05;;;1.80;;
16878;SDS011;8556;52.218;9.884;2022-08-19T14:38:37;2.65;;;2.10;;
16878;SDS011;8556;52.218;9.884;2022-08-19T14:41:06;2.78;;;1.75;;
16878;SDS011;8556;52.218;9.884;2022-08-19T14:43:34;2.70;;;1.92;;
16878;SDS011;8556;52.218;9.884;2022-08-19T14:46:02;2.28;;;2.10;;
16878;SDS011;8556;52.218;9.884;2022-08-19T14:48:29;2.17;;;2.03;;
16878;SDS011;8556;52.218;9.884;2022-08-19T14:50:56;2.47;;;2.00;;
16878;SDS011;8556;52.218;9.884;2022-08-19T14:53:23;3.97;;;1.95;;
16878;SDS011;8556;52.218;9.884;2022-08-19T14:55:50;2.25;;;2.05;;